WAT969 PANT-CYOD
Flight info
| Callsign | WAT969 |
|---|---|
| Flight time | N/A |
| Altitude | 25000 |
| Route | YGI |
| Aircraft | PC12/L-SDFGRWY/S |
Departure
| Time | 2026-04-27 16:58 |
|---|---|
| Airport | Annette Island Airport (PANT) |
Arrival
| Time | N/A |
|---|---|
| Airport | CFB Cold Lake (CYOD) |
| Time | Latitude | Longitude | Altitude | Speed | Heading |
|---|---|---|---|---|---|
| 2026-04-27 16:36 | 55.03777 | -131.57721 | 109 ft | 0 kts | 245° |
| 2026-04-27 16:55 | 55.03777 | -131.57730 | 109 ft | 0 kts | 289° |
| 2026-04-27 16:55 | 55.03819 | -131.57719 | 109 ft | 11 kts | 43° |
| 2026-04-27 16:56 | 55.03888 | -131.57688 | 109 ft | 10 kts | 3° |
| 2026-04-27 16:56 | 55.03953 | -131.57680 | 109 ft | 9 kts | 11° |
| 2026-04-27 16:56 | 55.04005 | -131.57640 | 109 ft | 8 kts | 25° |
| 2026-04-27 16:56 | 55.04061 | -131.57643 | 109 ft | 9 kts | 342° |
| 2026-04-27 16:57 | 55.04131 | -131.57705 | 108 ft | 13 kts | 330° |
| 2026-04-27 16:57 | 55.04207 | -131.57799 | 108 ft | 12 kts | 322° |
| 2026-04-27 16:57 | 55.04197 | -131.57724 | 108 ft | 17 kts | 150° |
| 2026-04-27 16:57 | 55.03934 | -131.57470 | 110 ft | 70 kts | 154° |
| 2026-04-27 16:58 | 55.03380 | -131.56959 | 117 ft | 104 kts | 153° |
| 2026-04-27 16:58 | 55.02738 | -131.56356 | 302 ft | 108 kts | 155° |
| 2026-04-27 16:58 | 55.02080 | -131.55757 | 601 ft | 106 kts | 155° |
| 2026-04-27 16:58 | 55.01396 | -131.55157 | 829 ft | 117 kts | 150° |
| 2026-04-27 16:59 | 55.00896 | -131.53971 | 1065 ft | 133 kts | 94° |
| 2026-04-27 16:59 | 55.01186 | -131.52456 | 1510 ft | 130 kts | 59° |
| 2026-04-27 16:59 | 55.01601 | -131.51064 | 2031 ft | 131 kts | 58° |
| 2026-04-27 16:59 | 55.02046 | -131.49666 | 2578 ft | 131 kts | 60° |
| 2026-04-27 17:00 | 55.02272 | -131.47018 | 3607 ft | 130 kts | 80° |
| 2026-04-27 17:00 | 55.02407 | -131.44802 | 4329 ft | 145 kts | 79° |
| 2026-04-27 17:00 | 55.02516 | -131.43055 | 4928 ft | 147 kts | 79° |
| 2026-04-27 17:01 | 55.02629 | -131.41265 | 5549 ft | 150 kts | 80° |
| 2026-04-27 17:01 | 55.02743 | -131.39448 | 6120 ft | 152 kts | 80° |
| 2026-04-27 17:01 | 55.02859 | -131.37609 | 6681 ft | 154 kts | 80° |
| 2026-04-27 17:01 | 55.02977 | -131.35742 | 7230 ft | 156 kts | 80° |
| 2026-04-27 17:02 | 55.03096 | -131.33849 | 7784 ft | 158 kts | 80° |
| 2026-04-27 17:02 | 55.03217 | -131.31935 | 8404 ft | 160 kts | 80° |
| 2026-04-27 17:02 | 55.03338 | -131.29994 | 8967 ft | 162 kts | 80° |
| 2026-04-27 17:02 | 55.03460 | -131.28047 | 9513 ft | 165 kts | 80° |
| 2026-04-27 17:03 | 55.03586 | -131.26018 | 10014 ft | 171 kts | 81° |
| 2026-04-27 17:03 | 55.03713 | -131.23952 | 10524 ft | 172 kts | 81° |
| 2026-04-27 17:03 | 55.03842 | -131.21868 | 11025 ft | 174 kts | 81° |
| 2026-04-27 17:03 | 55.03972 | -131.19762 | 11542 ft | 175 kts | 81° |
| 2026-04-27 17:04 | 55.04103 | -131.17637 | 12052 ft | 177 kts | 81° |
| 2026-04-27 17:04 | 55.04235 | -131.15490 | 12565 ft | 179 kts | 81° |
| 2026-04-27 17:04 | 55.04368 | -131.13325 | 13087 ft | 181 kts | 81° |
| 2026-04-27 17:04 | 55.04501 | -131.11138 | 13621 ft | 182 kts | 81° |
| 2026-04-27 17:05 | 55.04636 | -131.08929 | 14102 ft | 184 kts | 81° |
| 2026-04-27 17:05 | 55.04771 | -131.06707 | 14569 ft | 185 kts | 81° |
| 2026-04-27 17:05 | 55.04907 | -131.04467 | 15043 ft | 186 kts | 81° |
| 2026-04-27 17:05 | 55.04996 | -131.02977 | 15362 ft | 187 kts | 81° |
| 2026-04-27 17:06 | 55.05179 | -130.99940 | 15992 ft | 189 kts | 81° |
| 2026-04-27 17:06 | 55.05317 | -130.97651 | 16481 ft | 190 kts | 81° |
| 2026-04-27 17:06 | 55.05454 | -130.95345 | 16961 ft | 192 kts | 81° |
| 2026-04-27 17:06 | 55.05593 | -130.93023 | 17437 ft | 193 kts | 81° |
| 2026-04-27 17:07 | 55.05732 | -130.90683 | 17920 ft | 195 kts | 81° |
| 2026-04-27 17:07 | 55.05871 | -130.88328 | 18381 ft | 196 kts | 81° |
| 2026-04-27 17:07 | 55.06011 | -130.85955 | 18752 ft | 197 kts | 81° |
| 2026-04-27 17:07 | 55.06151 | -130.83569 | 19149 ft | 199 kts | 81° |
| 2026-04-27 17:08 | 55.06292 | -130.81164 | 19549 ft | 200 kts | 81° |
| 2026-04-27 17:08 | 55.06433 | -130.78745 | 19945 ft | 201 kts | 80° |
| 2026-04-27 17:08 | 55.06575 | -130.76316 | 20338 ft | 202 kts | 80° |
| 2026-04-27 17:08 | 55.06717 | -130.73879 | 20744 ft | 203 kts | 79° |
| 2026-04-27 17:09 | 55.06860 | -130.71417 | 21138 ft | 204 kts | 79° |
| 2026-04-27 17:09 | 55.07002 | -130.68947 | 21539 ft | 205 kts | 79° |
| 2026-04-27 17:09 | 55.07145 | -130.66454 | 21937 ft | 207 kts | 79° |
| 2026-04-27 17:09 | 55.07288 | -130.63946 | 22339 ft | 208 kts | 78° |
| 2026-04-27 17:10 | 55.07432 | -130.61424 | 22718 ft | 209 kts | 78° |
| 2026-04-27 17:10 | 55.07576 | -130.58892 | 23121 ft | 211 kts | 78° |
| 2026-04-27 17:10 | 55.07720 | -130.56335 | 23516 ft | 212 kts | 77° |
| 2026-04-27 17:10 | 55.07816 | -130.54640 | 23761 ft | 213 kts | 77° |
| 2026-04-27 17:11 | 55.08010 | -130.51181 | 24193 ft | 216 kts | 77° |
| 2026-04-27 17:11 | 55.08303 | -130.45936 | 24851 ft | 219 kts | 77° |
| 2026-04-27 17:11 | 55.08449 | -130.43310 | 25154 ft | 221 kts | 77° |
| 2026-04-27 17:12 | 55.08748 | -130.37905 | 25671 ft | 232 kts | 77° |
| 2026-04-27 17:12 | 55.08857 | -130.35966 | 25677 ft | 243 kts | 77° |
| 2026-04-27 17:12 | 55.09077 | -130.31933 | 25687 ft | 261 kts | 78° |
| 2026-04-27 17:13 | 55.09252 | -130.28685 | 25530 ft | 278 kts | 78° |
| 2026-04-27 17:13 | 55.09439 | -130.25226 | 25298 ft | 293 kts | 79° |
| 2026-04-27 17:13 | 55.09569 | -130.22801 | 25141 ft | 301 kts | 79° |
| 2026-04-27 17:13 | 55.09760 | -130.19151 | 25056 ft | 301 kts | 79° |
| 2026-04-27 17:14 | 55.09949 | -130.15538 | 25057 ft | 297 kts | 79° |
| 2026-04-27 17:14 | 55.10138 | -130.12001 | 25050 ft | 296 kts | 79° |
| 2026-04-27 17:14 | 55.10330 | -130.08391 | 25051 ft | 294 kts | 79° |
| 2026-04-27 17:14 | 55.10513 | -130.04890 | 25051 ft | 293 kts | 79° |
| 2026-04-27 17:15 | 55.10695 | -130.01370 | 25048 ft | 290 kts | 79° |
| 2026-04-27 17:15 | 55.10877 | -129.97858 | 25049 ft | 289 kts | 78° |
| 2026-04-27 17:15 | 55.11058 | -129.94364 | 25052 ft | 289 kts | 78° |
| 2026-04-27 17:15 | 55.11237 | -129.90863 | 25048 ft | 289 kts | 78° |
| 2026-04-27 17:16 | 55.11415 | -129.87368 | 25050 ft | 289 kts | 79° |
| 2026-04-27 17:16 | 55.11592 | -129.83865 | 25051 ft | 290 kts | 79° |
| 2026-04-27 17:16 | 55.11768 | -129.80360 | 25040 ft | 288 kts | 78° |
| 2026-04-27 17:16 | 55.11941 | -129.76891 | 25047 ft | 286 kts | 78° |
| 2026-04-27 17:17 | 55.12114 | -129.73419 | 25047 ft | 287 kts | 78° |
| 2026-04-27 17:17 | 55.12287 | -129.69938 | 25046 ft | 288 kts | 79° |
| 2026-04-27 17:17 | 55.12456 | -129.66467 | 25046 ft | 286 kts | 78° |
| 2026-04-27 17:18 | 55.12792 | -129.59575 | 25041 ft | 285 kts | 78° |
| 2026-04-27 17:18 | 55.12960 | -129.56115 | 25041 ft | 286 kts | 78° |
| 2026-04-27 17:18 | 55.13126 | -129.52659 | 25036 ft | 285 kts | 78° |
| 2026-04-27 17:18 | 55.13290 | -129.49204 | 25039 ft | 285 kts | 78° |
| 2026-04-27 17:19 | 55.13453 | -129.45754 | 25032 ft | 284 kts | 78° |
| 2026-04-27 17:19 | 55.13613 | -129.42339 | 25037 ft | 282 kts | 78° |
| 2026-04-27 17:19 | 55.13774 | -129.38932 | 25036 ft | 282 kts | 78° |
| 2026-04-27 17:19 | 55.13934 | -129.35514 | 25039 ft | 283 kts | 78° |
| 2026-04-27 17:20 | 55.14092 | -129.32084 | 25033 ft | 283 kts | 78° |
| 2026-04-27 17:20 | 55.14250 | -129.28648 | 25029 ft | 284 kts | 78° |
| 2026-04-27 17:20 | 55.14406 | -129.25212 | 25029 ft | 284 kts | 78° |
| 2026-04-27 17:20 | 55.14564 | -129.21761 | 25029 ft | 286 kts | 78° |
| 2026-04-27 17:21 | 55.14721 | -129.18293 | 25028 ft | 286 kts | 78° |
| 2026-04-27 17:21 | 55.14875 | -129.14832 | 25019 ft | 285 kts | 78° |
| 2026-04-27 17:21 | 55.15027 | -129.11401 | 25023 ft | 283 kts | 78° |
| 2026-04-27 17:21 | 55.15178 | -129.08005 | 25024 ft | 284 kts | 78° |
| 2026-04-27 17:22 | 55.15330 | -129.04560 | 25021 ft | 285 kts | 78° |
| 2026-04-27 17:22 | 55.15481 | -129.01111 | 25022 ft | 285 kts | 78° |
| 2026-04-27 17:22 | 55.15630 | -128.97662 | 25017 ft | 285 kts | 78° |
| 2026-04-27 17:22 | 55.15779 | -128.94211 | 25016 ft | 284 kts | 78° |
| 2026-04-27 17:23 | 55.15927 | -128.90768 | 25013 ft | 285 kts | 78° |
| 2026-04-27 17:23 | 55.16074 | -128.87315 | 25013 ft | 285 kts | 78° |
| 2026-04-27 17:23 | 55.16219 | -128.83863 | 25005 ft | 283 kts | 79° |
| 2026-04-27 17:23 | 55.16362 | -128.80440 | 25013 ft | 282 kts | 78° |
| 2026-04-27 17:24 | 55.16506 | -128.77019 | 25008 ft | 282 kts | 78° |
| 2026-04-27 17:24 | 55.16649 | -128.73601 | 25007 ft | 282 kts | 78° |
| 2026-04-27 17:24 | 55.16789 | -128.70175 | 25004 ft | 283 kts | 78° |
| 2026-04-27 17:24 | 55.16929 | -128.66744 | 25000 ft | 283 kts | 79° |